createdAt,value
2019-01-12T00:02:50.312Z,29.85
2019-01-12T00:07:57.929Z,29.77
2019-01-12T00:13:05.628Z,30.52
2019-01-12T00:18:13.265Z,29.15
2019-01-12T00:23:20.913Z,30.08
2019-01-12T00:28:28.553Z,29.35
2019-01-12T00:33:36.196Z,26.84
2019-01-12T00:38:43.906Z,31.21
2019-01-12T00:43:51.652Z,26.44
2019-01-12T00:48:59.280Z,26.14
2019-01-12T00:54:06.944Z,19.45
2019-01-12T00:59:14.577Z,16.93
2019-01-12T01:04:22.270Z,20.57
2019-01-12T01:09:29.880Z,21.13
2019-01-12T01:14:37.540Z,21.98
2019-01-12T01:19:45.173Z,23.22
2019-01-12T01:24:52.864Z,26.86
2019-01-12T01:30:00.501Z,25.45
2019-01-12T01:35:08.182Z,24.86
2019-01-12T01:40:15.817Z,22.82
2019-01-12T01:45:23.445Z,24.29
2019-01-12T01:50:31.080Z,17.33
2019-01-12T01:55:38.727Z,19.79
2019-01-12T02:00:46.352Z,17.55
2019-01-12T02:05:53.988Z,17.19
2019-01-12T02:11:01.693Z,13.62
2019-01-12T02:16:09.313Z,14.19
2019-01-12T02:21:16.920Z,15.18
2019-01-12T02:26:24.592Z,11.10
2019-01-12T02:31:32.205Z,12.90
2019-01-12T02:36:39.836Z,11.31
2019-01-12T02:41:47.451Z,11.02
2019-01-12T02:46:55.206Z,11.36
2019-01-12T02:52:02.857Z,12.06
2019-01-12T02:57:10.550Z,9.24
2019-01-12T03:02:18.171Z,10.05
2019-01-12T03:07:25.821Z,11.83
2019-01-12T03:12:33.432Z,8.27
2019-01-12T03:17:41.048Z,11.21
2019-01-12T03:22:48.688Z,7.83
2019-01-12T03:27:56.393Z,8.67
2019-01-12T03:33:04.027Z,9.41
2019-01-12T03:38:11.750Z,8.09
2019-01-12T03:43:19.389Z,10.28
2019-01-12T03:48:27.068Z,7.08
2019-01-12T03:53:34.679Z,7.93
2019-01-12T03:58:42.340Z,10.27
2019-01-12T04:03:49.981Z,9.03
2019-01-12T04:08:57.701Z,9.73
2019-01-12T04:14:05.341Z,8.11
2019-01-12T04:19:12.972Z,10.38
2019-01-12T04:24:20.589Z,9.18
2019-01-12T04:29:28.250Z,10.51
2019-01-12T04:34:35.872Z,12.86
2019-01-12T04:39:43.517Z,15.87
2019-01-12T04:44:51.153Z,14.22
2019-01-12T04:49:58.865Z,19.45
2019-01-12T04:55:06.499Z,17.34
2019-01-12T05:00:14.196Z,17.18
2019-01-12T05:05:21.817Z,19.67
2019-01-12T05:10:29.465Z,18.56
2019-01-12T05:15:37.072Z,25.23
2019-01-12T05:20:44.768Z,27.22
2019-01-12T05:25:52.389Z,33.24
2019-01-12T05:31:00.171Z,33.13
2019-01-12T05:36:07.817Z,31.36
2019-01-12T05:41:15.517Z,31.93
2019-01-12T05:46:23.124Z,33.34
2019-01-12T05:51:30.815Z,34.72
2019-01-12T05:56:38.420Z,36.96
2019-01-12T06:01:46.124Z,40.09
2019-01-12T06:06:53.761Z,36.51
2019-01-12T06:12:01.414Z,38.94
2019-01-12T06:17:09.050Z,37.99
2019-01-12T06:22:16.748Z,33.53
2019-01-12T06:27:24.391Z,33.57
2019-01-12T06:32:32.056Z,36.57
2019-01-12T06:37:39.677Z,37.61
2019-01-12T06:42:47.411Z,38.74
2019-01-12T06:47:55.037Z,46.65
2019-01-12T06:53:02.684Z,47.70
2019-01-12T06:58:10.349Z,43.54
2019-01-12T07:03:17.985Z,50.88
2019-01-12T07:08:25.672Z,45.58
2019-01-12T07:13:33.317Z,46.83
2019-01-12T07:18:40.969Z,45.66
2019-01-12T07:23:48.605Z,43.16
2019-01-12T07:28:56.316Z,43.93
2019-01-12T07:34:03.965Z,44.13
2019-01-12T07:39:11.654Z,40.98
2019-01-12T07:44:19.294Z,39.10
2019-01-12T07:49:27.170Z,38.88
2019-01-12T07:54:34.596Z,38.48
2019-01-12T07:59:42.248Z,37.31
2019-01-12T08:05:22.929Z,39.78
2019-01-12T08:09:50.561Z,38.84
2019-01-12T08:14:58.197Z,38.28
2019-01-12T08:20:05.817Z,40.03
2019-01-12T08:25:23.244Z,37.02
2019-01-12T08:30:20.328Z,37.31
2019-01-12T08:35:28.028Z,40.32
2019-01-12T08:40:35.658Z,36.66
2019-01-12T08:45:54.329Z,38.12
2019-01-12T08:50:51.033Z,35.66
2019-01-12T08:55:58.692Z,40.47
2019-01-12T09:01:06.376Z,35.44
2019-01-12T09:06:14.093Z,39.72
2019-01-12T09:11:21.748Z,36.32
2019-01-12T09:17:53.993Z,37.51
2019-01-12T09:21:31.657Z,37.07
2019-01-12T09:26:44.853Z,39.08
2019-01-12T09:31:46.460Z,34.21
2019-01-12T09:37:04.991Z,35.35
2019-01-12T09:42:02.164Z,34.86
2019-01-12T09:47:09.872Z,37.47
2019-01-12T09:52:17.517Z,35.44
2019-01-12T09:57:34.726Z,35.52
2019-01-12T10:02:31.432Z,36.77
2019-01-12T10:07:39.141Z,39.49
2019-01-12T10:12:46.800Z,37.28
2019-01-12T10:18:04.717Z,34.47
2019-01-12T10:23:01.708Z,35.35
2019-01-12T10:28:09.358Z,33.27
2019-01-12T10:34:00.535Z,33.23
2019-01-12T10:38:27.865Z,31.93
2019-01-12T10:43:25.696Z,33.38
2019-01-12T10:48:33.402Z,35.23
2019-01-12T10:53:41.061Z,38.84
2019-01-12T10:58:48.751Z,36.19
2019-01-12T11:03:56.403Z,37.55
2019-01-12T11:09:25.001Z,38.78
2019-01-12T11:14:23.148Z,42.33
2019-01-12T11:19:20.328Z,43.97
2019-01-12T11:24:27.952Z,41.93
2019-01-12T11:29:35.749Z,42.71
2019-01-12T11:34:57.594Z,47.01
2019-01-12T11:39:44.948Z,40.61
2019-01-12T11:44:52.566Z,40.05
2019-01-12T11:50:00.241Z,42.11
2019-01-12T11:55:07.830Z,40.52
2019-01-12T12:00:18.555Z,39.37
2019-01-12T12:05:17.247Z,46.72
2019-01-12T12:10:23.352Z,38.65
2019-01-12T12:15:30.980Z,39.04
2019-01-12T12:20:55.041Z,35.34
2019-01-12T12:25:41.727Z,37.59
2019-01-12T12:30:49.424Z,40.49
2019-01-12T12:35:57.146Z,40.07
2019-01-12T12:41:04.940Z,42.57
2019-01-12T12:46:12.609Z,46.02
2019-01-12T12:51:20.407Z,38.08
2019-01-12T12:56:28.137Z,40.18
2019-01-12T13:01:35.879Z,43.60
2019-01-12T13:06:43.474Z,42.16
2019-01-12T13:11:51.172Z,44.08
2019-01-12T13:16:58.776Z,45.13
2019-01-12T13:22:06.487Z,47.26
2019-01-12T13:27:14.128Z,53.67
2019-01-12T13:32:21.786Z,46.69
2019-01-12T13:37:29.414Z,45.22
2019-01-12T13:42:37.090Z,38.50
2019-01-12T13:47:44.728Z,62.72
2019-01-12T13:52:52.369Z,46.26
2019-01-12T13:57:59.973Z,28.81
2019-01-12T14:03:07.682Z,36.06
2019-01-12T14:08:15.336Z,33.55
2019-01-12T14:13:22.984Z,26.97
2019-01-12T14:18:30.609Z,27.02
2019-01-12T14:23:38.313Z,26.26
2019-01-12T14:28:45.936Z,25.41
2019-01-12T14:33:53.561Z,25.38
2019-01-12T14:39:01.172Z,24.88
2019-01-12T14:44:08.880Z,21.55
2019-01-12T14:49:16.527Z,25.98
2019-01-12T14:54:24.317Z,23.66
2019-01-12T14:59:31.969Z,26.55
2019-01-12T15:04:39.645Z,21.68
2019-01-12T15:09:47.246Z,23.45
2019-01-12T15:14:54.860Z,20.99
2019-01-12T15:20:02.482Z,20.36
2019-01-12T15:25:10.260Z,19.96
2019-01-12T15:30:17.812Z,24.27
2019-01-12T15:35:25.440Z,23.04
2019-01-12T15:40:33.093Z,21.53
2019-01-12T15:45:40.745Z,16.76
2019-01-12T15:50:48.378Z,18.09
2019-01-12T15:55:56.097Z,16.90
2019-01-12T16:01:03.708Z,18.74
2019-01-12T16:06:11.370Z,15.93
2019-01-12T16:11:18.998Z,15.72
2019-01-12T16:16:26.660Z,14.83
2019-01-12T16:21:34.275Z,19.45
2019-01-12T16:26:41.957Z,19.39
2019-01-12T16:31:49.575Z,22.94
2019-01-12T16:36:57.293Z,18.27
2019-01-12T16:42:04.913Z,18.89
2019-01-12T16:47:12.600Z,15.90
2019-01-12T16:52:20.216Z,14.72
2019-01-12T16:57:35.786Z,13.36
2019-01-12T17:02:39.580Z,14.41
2019-01-12T17:07:37.324Z,12.39
2019-01-12T17:12:44.952Z,13.75
2019-01-12T17:17:52.621Z,17.80
2019-01-12T17:23:00.255Z,16.48
2019-01-12T17:28:07.928Z,14.83
2019-01-12T17:33:15.536Z,15.99
2019-01-12T17:38:23.246Z,14.79
2019-01-12T17:43:30.875Z,16.69
2019-01-12T17:48:38.544Z,18.05
2019-01-12T17:53:46.185Z,15.97
2019-01-12T17:58:53.826Z,17.86
2019-01-12T18:04:01.477Z,15.95
2019-01-12T18:09:09.157Z,18.91
2019-01-12T18:14:16.788Z,16.35
2019-01-12T18:19:24.430Z,15.85
2019-01-12T18:24:32.040Z,16.67
2019-01-12T18:29:39.778Z,16.19
2019-01-12T18:34:47.396Z,18.75
2019-01-12T18:39:55.053Z,17.17
2019-01-12T18:45:02.669Z,13.88
2019-01-12T18:50:10.308Z,18.29
2019-01-12T18:55:18.009Z,17.09
2019-01-12T19:00:25.700Z,18.55
2019-01-12T19:05:33.305Z,16.97
2019-01-12T19:10:40.979Z,16.71
2019-01-12T19:15:48.613Z,17.18
2019-01-12T19:20:56.269Z,15.79
2019-01-12T19:26:03.929Z,17.78
2019-01-12T19:31:11.609Z,17.13
2019-01-12T19:36:19.260Z,17.27
2019-01-12T19:41:26.920Z,16.04
2019-01-12T19:46:34.533Z,19.27
2019-01-12T19:51:42.213Z,17.19
2019-01-12T19:56:49.840Z,19.17
2019-01-12T20:01:57.528Z,14.62
2019-01-12T20:07:05.156Z,16.80
2019-01-12T20:12:12.817Z,20.04
2019-01-12T20:17:20.465Z,20.20
2019-01-12T20:22:28.109Z,18.15
2019-01-12T20:27:36.100Z,17.57
2019-01-12T20:32:43.788Z,19.47
2019-01-12T20:37:51.404Z,16.26
2019-01-12T20:42:59.148Z,18.62
2019-01-12T20:48:09.068Z,17.51
2019-01-12T20:53:14.060Z,15.55
2019-01-12T20:58:21.684Z,15.56
2019-01-12T21:03:29.417Z,15.35
2019-01-12T21:08:37.060Z,18.48
2019-01-12T21:13:44.748Z,15.99
2019-01-12T21:18:52.349Z,19.36
2019-01-12T21:24:00.049Z,18.69
2019-01-12T21:29:07.689Z,16.78
2019-01-12T21:34:15.321Z,19.86
2019-01-12T21:39:22.993Z,21.18
2019-01-12T21:44:30.633Z,15.99
2019-01-12T21:49:38.356Z,19.77
2019-01-12T21:54:45.988Z,17.98
2019-01-12T21:59:53.690Z,18.59
2019-01-12T22:05:01.310Z,18.64
2019-01-12T22:10:08.996Z,17.14
2019-01-12T22:15:16.648Z,22.50
2019-01-12T22:20:24.413Z,22.09
2019-01-12T22:25:32.046Z,22.09
2019-01-12T22:30:39.744Z,18.21
2019-01-12T22:35:47.364Z,19.57
2019-01-12T22:40:55.049Z,20.24
2019-01-12T22:46:02.676Z,18.30
2019-01-12T22:51:10.324Z,21.27
2019-01-12T22:56:18.009Z,25.51
2019-01-12T23:01:25.624Z,22.31
2019-01-12T23:06:33.284Z,25.89
2019-01-12T23:11:40.942Z,25.03
2019-01-12T23:16:48.608Z,27.91
2019-01-12T23:21:56.244Z,27.66
2019-01-12T23:27:03.924Z,26.61
2019-01-12T23:32:11.562Z,29.05
2019-01-12T23:37:19.260Z,26.24
2019-01-12T23:42:26.881Z,28.97
2019-01-12T23:47:34.534Z,29.07
2019-01-12T23:52:42.155Z,25.48
2019-01-12T23:57:49.840Z,27.57
